Time;durP1;ratioP1;P1;durP2;ratioP2;P2;SDS_P1;SDS_P2;PMS_P1;PMS_P2;Temp;Humidity;BMP_temperature;BMP_pressure;BME280_temperature;BME280_humidity;BME280_pressure;Samples;Min_cycle;Max_cycle;Signal;HPM_P1;HPM_P2
2023/02/13 00:02:19;;;;;;;38.28;17.70;;;8.90;80.90;;;;;;9171264;19;20463;-66
2023/02/13 00:05:23;;;;;;;;;;;8.90;80.90;;;;;;9173872;19;20029;-67
2023/02/13 00:08:31;;;;;;;32.80;16.67;;;8.90;80.90;;;;;;9174562;19;19930;-66
2023/02/13 00:11:35;;;;;;;31.70;15.25;;;8.90;81.50;;;;;;9178645;19;20022;-66
2023/02/13 00:14:41;;;;;;;33.35;16.00;;;8.90;80.90;;;;;;9173861;19;20022;-66
2023/02/13 00:17:45;;;;;;;43.45;16.90;;;8.90;80.90;;;;;;9173858;19;20015;-66
2023/02/13 00:20:59;;;;;;;31.48;15.52;;;8.90;80.90;;;;;;9169722;19;20022;-66
2023/02/13 00:24:05;;;;;;;35.15;16.05;;;8.90;80.90;;;;;;9173576;19;20750;-66
2023/02/13 00:27:11;;;;;;;33.88;16.17;;;8.90;80.90;;;;;;9175317;19;20017;-67
2023/02/13 00:30:16;;;;;;;30.45;14.55;;;8.90;80.90;;;;;;9175230;19;20360;-66
2023/02/13 00:33:22;;;;;;;32.80;15.05;;;8.90;81.00;;;;;;9169251;19;20336;-67
2023/02/13 00:36:26;;;;;;;;;;;8.90;80.90;;;;;;9175097;19;20506;-66
2023/02/13 00:39:34;;;;;;;32.28;13.82;;;8.90;80.90;;;;;;9170615;19;19918;-67
2023/02/13 00:42:38;;;;;;;34.20;15.02;;;8.80;80.80;;;;;;9171540;19;20364;-68
2023/02/13 00:45:44;;;;;;;32.92;14.90;;;8.80;80.80;;;;;;9171522;19;20586;-68
2023/02/13 00:48:48;;;;;;;30.75;14.68;;;8.80;80.90;;;;;;9173070;19;20019;-66
2023/02/13 00:51:54;;;;;;;33.42;14.77;;;8.80;81.50;;;;;;9173006;19;20018;-66
2023/02/13 00:55:00;;;;;;;32.00;14.90;;;8.80;80.90;;;;;;9171039;19;20026;-66
2023/02/13 00:58:06;;;;;;;31.27;15.18;;;8.80;80.90;;;;;;9174244;19;20010;-66
2023/02/13 01:01:10;;;;;;;;;;;8.80;80.90;;;;;;9173704;19;20133;-66
2023/02/13 01:04:16;;;;;;;32.90;14.85;;;8.80;80.90;;;;;;9172988;19;19926;-67
2023/02/13 01:07:20;;;;;;;29.63;14.55;;;8.80;80.80;;;;;;9172029;19;20383;-66
2023/02/13 01:10:28;;;;;;;35.13;15.43;;;8.80;80.90;;;;;;9172030;19;20018;-65
2023/02/13 01:13:32;;;;;;;34.05;14.70;;;8.80;80.90;;;;;;9171777;19;20066;-66
2023/02/13 01:16:38;;;;;;;33.08;14.68;;;8.80;80.90;;;;;;9173049;19;20439;-67
2023/02/13 01:19:42;;;;;;;32.50;15.98;;;8.80;80.90;;;;;;9169499;19;20019;-65
2023/02/13 01:22:47;;;;;;;32.92;15.13;;;8.70;80.80;;;;;;9172779;19;20494;-66
2023/02/13 01:25:54;;;;;;;31.83;15.55;;;8.70;80.90;;;;;;9169322;19;20021;-65
2023/02/13 01:29:00;;;;;;;34.42;15.48;;;8.70;80.80;;;;;;9172924;19;20007;-65
2023/02/13 01:32:04;;;;;;;;;;;8.70;80.90;;;;;;9172697;19;20007;-66
2023/02/13 01:35:12;;;;;;;32.13;14.77;;;8.70;80.90;;;;;;9170485;19;19925;-66
2023/02/13 01:38:16;;;;;;;32.30;15.18;;;8.70;80.90;;;;;;9170580;19;20018;-68
2023/02/13 01:41:24;;;;;;;33.03;14.93;;;8.60;80.90;;;;;;9171007;19;20010;-67
2023/02/13 01:44:47;;;;;;;39.97;16.55;;;8.70;81.00;;;;;;9171449;19;20052;-67
2023/02/13 01:47:58;;;;;;;41.00;15.40;;;8.60;80.90;;;;;;9170002;19;20007;-65
2023/02/13 01:51:25;;;;;;;31.75;15.43;;;8.60;80.90;;;;;;9171373;19;20018;-67
2023/02/13 01:54:35;;;;;;;28.67;14.02;;;8.60;80.90;;;;;;9169276;19;20350;-67
2023/02/13 01:57:42;;;;;;;33.45;14.90;;;8.60;81.00;;;;;;9168051;19;20029;-66
2023/02/13 02:00:49;;;;;;;30.70;14.48;;;8.60;81.00;;;;;;9170584;19;20019;-67
2023/02/13 02:04:04;;;;;;;41.45;16.50;;;8.60;81.00;;;;;;9171211;19;20015;-67
2023/02/13 02:07:15;;;;;;;35.63;15.40;;;8.60;81.00;;;;;;9168961;19;20475;-66
2023/02/13 02:10:21;;;;;;;33.45;15.57;;;8.60;81.00;;;;;;9168169;19;20022;-67
2023/02/13 02:13:29;;;;;;;33.20;15.65;;;8.60;81.00;;;;;;9170775;19;20017;-68
2023/02/13 02:16:39;;;;;;;35.65;16.23;;;8.60;81.00;;;;;;9168448;19;20667;-66
2023/02/13 02:19:54;;;;;;;33.80;15.88;;;8.60;81.10;;;;;;9167409;19;20022;-66
2023/02/13 02:23:31;;;;;;;38.25;16.10;;;8.60;81.10;;;;;;9169045;19;20374;-67
2023/02/13 02:27:09;;;;;;;32.35;14.32;;;8.50;81.00;;;;;;9168758;19;20498;-67
2023/02/13 02:30:59;;;;;;;37.38;16.02;;;8.50;81.00;;;;;;9165730;19;20472;-68
2023/02/13 02:34:18;;;;;;;37.70;16.20;;;8.50;81.00;;;;;;9167374;19;20017;-64
2023/02/13 02:37:39;;;;;;;38.70;15.90;;;8.50;81.00;;;;;;9175820;19;20021;-64
2023/02/13 02:40:56;;;;;;;34.95;15.40;;;8.50;81.00;;;;;;9179168;19;20809;-66
2023/02/13 02:44:09;;;;;;;36.60;15.77;;;8.50;81.00;;;;;;9177910;19;20040;-67
2023/02/13 02:50:51;;;;;;;40.58;15.60;;;8.50;81.00;;;;;;9177860;19;20748;-67
2023/02/13 02:55:05;;;;;;;39.20;16.40;;;8.50;81.00;;;;;;9177547;19;20064;-66
2023/02/13 03:07:46;;;;;;;38.47;16.05;;;8.50;81.00;;;;;;9177988;19;20033;-67
2023/02/13 03:14:12;;;;;;;40.00;16.98;;;8.50;81.10;;;;;;9176623;19;20019;-64
2023/02/13 03:24:12;;;;;;;42.85;15.50;;;8.50;81.10;;;;;;9176005;19;20011;-66
2023/02/13 03:30:59;;;;;;;38.72;15.93;;;8.40;81.10;;;;;;9176957;19;20025;-64
2023/02/13 03:34:07;;;;;;;38.75;16.77;;;8.40;81.10;;;;;;9175979;19;20050;-68
2023/02/13 03:41:17;;;;;;;44.85;16.42;;;8.40;81.20;;;;;;9176312;19;20022;-66
2023/02/13 03:44:14;;;;;;;39.17;16.30;;;8.40;81.20;;;;;;9174879;19;20019;-68
2023/02/13 03:47:20;;;;;;;37.03;16.13;;;8.40;81.10;;;;;;9174761;19;20025;-66
2023/02/13 03:50:24;;;;;;;35.63;15.50;;;8.40;81.20;;;;;;9176679;19;20538;-66
2023/02/13 03:53:34;;;;;;;40.92;17.65;;;8.40;81.20;;;;;;9175701;19;20053;-66
2023/02/13 04:00:03;;;;;;;39.25;16.25;;;8.40;81.20;;;;;;9175799;19;20010;-66
2023/02/13 04:03:21;;;;;;;38.03;16.40;;;8.50;81.30;;;;;;9177262;19;20082;-66
2023/02/13 04:06:32;;;;;;;38.75;15.95;;;8.50;81.30;;;;;;9175369;19;20018;-67
2023/02/13 04:09:39;;;;;;;42.92;16.60;;;8.50;81.30;;;;;;9175447;19;20487;-67
2023/02/13 04:12:54;;;;;;;43.10;16.83;;;8.50;81.30;;;;;;9175776;19;20344;-66
2023/02/13 04:16:03;;;;;;;35.45;15.68;;;8.50;81.20;;;;;;9173549;19;20502;-66
2023/02/13 04:19:10;;;;;;;35.85;16.33;;;8.50;81.20;;;;;;9170990;19;20022;-65
2023/02/13 04:22:14;;;;;;;40.63;16.92;;;8.50;81.20;;;;;;9175213;19;20014;-65
2023/02/13 04:25:21;;;;;;;38.60;16.42;;;8.40;81.20;;;;;;9174216;19;20007;-64
2023/02/13 04:28:27;;;;;;;39.08;16.42;;;8.50;81.30;;;;;;9172908;19;20493;-65
2023/02/13 04:31:33;;;;;;;39.22;16.48;;;8.50;81.30;;;;;;9173969;19;20029;-65
2023/02/13 04:34:37;;;;;;;41.78;16.77;;;8.50;81.30;;;;;;9174327;19;20019;-67
2023/02/13 04:37:43;;;;;;;39.25;15.88;;;8.50;81.40;;;;;;9174063;19;20364;-64
2023/02/13 04:40:46;;;;;;;40.25;17.15;;;8.40;81.20;;;;;;9175032;19;20368;-67
2023/02/13 04:43:54;;;;;;;39.45;15.98;;;8.50;81.40;;;;;;9175053;19;20006;-67
2023/02/13 04:46:58;;;;;;;37.53;16.25;;;8.50;81.30;;;;;;9174997;19;20029;-67
2023/02/13 04:50:04;;;;;;;40.42;17.40;;;8.50;81.40;;;;;;9174898;19;20023;-67
2023/02/13 04:53:08;;;;;;;39.03;16.13;;;8.50;81.40;;;;;;9172879;19;20018;-66
2023/02/13 04:56:14;;;;;;;42.67;16.98;;;8.50;81.30;;;;;;9171063;19;20014;-67
2023/02/13 04:59:20;;;;;;;;;;;8.50;81.30;;;;;;9172602;19;20381;-65
2023/02/13 05:02:26;;;;;;;37.45;15.63;;;8.50;81.30;;;;;;9172931;19;20263;-68
2023/02/13 05:05:29;;;;;;;;;;;8.50;81.30;;;;;;9175399;19;20082;-66
2023/02/13 05:08:36;;;;;;;40.00;16.60;;;8.50;81.30;;;;;;9173037;19;20253;-67
2023/02/13 05:11:39;;;;;;;38.25;16.25;;;8.50;81.30;;;;;;9170587;19;20014;-66
2023/02/13 05:14:47;;;;;;;40.65;16.92;;;8.50;81.30;;;;;;9173477;19;20470;-67
2023/02/13 05:17:52;;;;;;;38.17;16.27;;;8.50;81.40;;;;;;9173790;19;20026;-66
2023/02/13 05:24:14;;;;;;;41.90;17.55;;;8.50;81.40;;;;;;9173342;19;20029;-68
2023/02/13 05:27:20;;;;;;;41.85;16.52;;;8.50;81.40;;;;;;9172979;19;20293;-68
2023/02/13 05:30:26;;;;;;;36.40;16.27;;;8.50;81.40;;;;;;9172713;19;20010;-66
2023/02/13 05:33:32;;;;;;;42.00;18.08;;;8.50;81.40;;;;;;9173409;19;20364;-66
2023/02/13 05:36:36;;;;;;;39.25;15.80;;;8.50;81.50;;;;;;9169955;19;20022;-66
2023/02/13 05:39:42;;;;;;;33.03;15.35;;;8.50;81.40;;;;;;9171795;19;20018;-67
2023/02/13 05:42:46;;;;;;;42.05;16.38;;;8.50;81.50;;;;;;9171865;19;20030;-64
2023/02/13 05:46:01;;;;;;;40.45;16.95;;;8.50;81.50;;;;;;9172408;19;20033;-65
2023/02/13 05:49:05;;;;;;;42.45;16.88;;;8.50;81.50;;;;;;9172012;19;20763;-65
2023/02/13 05:52:11;;;;;;;47.50;17.83;;;8.50;81.50;;;;;;9171714;19;20022;-66
2023/02/13 05:55:16;;;;;;;42.88;18.13;;;8.50;81.50;;;;;;9170963;19;20048;-65
2023/02/13 05:58:22;;;;;;;37.92;16.65;;;8.50;81.50;;;;;;9172165;19;20046;-65
2023/02/13 06:01:28;;;;;;;42.45;17.00;;;8.50;81.50;;;;;;9170733;19;20487;-65
2023/02/13 06:04:34;;;;;;;41.95;17.08;;;8.50;81.50;;;;;;9171632;19;20003;-65
2023/02/13 06:07:38;;;;;;;43.10;17.42;;;8.50;81.50;;;;;;9172063;19;20031;-65
2023/02/13 06:10:43;;;;;;;42.25;17.80;;;8.50;81.50;;;;;;9169426;19;20007;-65
2023/02/13 06:13:48;;;;;;;43.08;17.67;;;8.50;81.50;;;;;;9170284;19;20049;-68
2023/02/13 06:16:56;;;;;;;37.38;17.55;;;8.50;81.50;;;;;;9173484;19;20018;-67
2023/02/13 06:20:00;;;;;;;41.88;17.75;;;8.50;81.50;;;;;;9172953;19;20033;-64
2023/02/13 06:23:06;;;;;;;40.92;18.05;;;8.50;81.60;;;;;;9177137;19;20018;-67
2023/02/13 06:26:10;;;;;;;38.08;16.98;;;8.50;81.60;;;;;;9176694;19;20359;-67
2023/02/13 06:29:16;;;;;;;42.20;17.95;;;8.50;81.60;;;;;;9177193;19;20019;-66
2023/02/13 06:32:22;;;;;;;43.95;17.55;;;8.50;81.60;;;;;;9177393;19;20018;-66
2023/02/13 06:35:28;;;;;;;39.38;17.42;;;8.40;81.50;;;;;;9175057;19;20018;-66
2023/02/13 06:38:32;;;;;;;38.45;16.65;;;8.50;81.60;;;;;;9176601;19;20017;-64
2023/02/13 06:41:38;;;;;;;41.47;17.85;;;8.50;81.60;;;;;;9176253;19;20022;-65
2023/02/13 06:44:42;;;;;;;;;;;8.40;81.60;;;;;;9176836;19;20018;-65
2023/02/13 06:47:50;;;;;;;40.55;17.52;;;8.50;81.70;;;;;;9175856;19;20371;-65
2023/02/13 06:50:54;;;;;;;36.15;16.00;;;8.40;81.50;;;;;;9175542;19;20025;-66
2023/02/13 06:54:01;;;;;;;33.75;16.38;;;8.40;81.50;;;;;;9175992;19;20019;-66
2023/02/13 06:57:05;;;;;;;35.30;16.90;;;8.50;81.60;;;;;;9172922;19;20041;-66
2023/02/13 07:00:13;;;;;;;37.60;16.70;;;8.50;81.60;;;;;;9174978;19;20011;-65
2023/02/13 07:03:19;;;;;;;43.80;17.45;;;8.50;81.70;;;;;;9173091;19;20113;-65
2023/02/13 07:06:25;;;;;;;34.40;16.23;;;8.40;81.60;;;;;;9173283;19;20023;-67
2023/02/13 07:09:30;;;;;;;40.20;16.95;;;8.50;81.70;;;;;;9175108;19;20531;-67
2023/02/13 07:12:36;;;;;;;40.22;17.50;;;8.50;81.70;;;;;;9160509;19;20014;-67
2023/02/13 07:15:40;;;;;;;39.55;17.02;;;8.50;81.70;;;;;;9165598;19;20025;-66
2023/02/13 07:18:48;;;;;;;40.53;17.38;;;8.50;81.70;;;;;;9163867;19;20027;-65
2023/02/13 07:21:51;;;;;;;44.30;17.17;;;8.40;81.70;;;;;;9168575;19;20133;-64
2023/02/13 07:24:57;;;;;;;39.25;16.52;;;8.40;81.70;;;;;;9176140;19;20021;-66
2023/02/13 07:28:05;;;;;;;;;;;8.50;81.70;;;;;;9177436;19;20702;-67
2023/02/13 07:31:11;;;;;;;40.30;17.55;;;8.50;81.70;;;;;;9176388;19;19925;-66
2023/02/13 07:34:17;;;;;;;39.72;17.58;;;8.50;81.70;;;;;;9176156;19;20029;-67
2023/02/13 07:37:23;;;;;;;37.65;18.05;;;8.50;81.70;;;;;;9178086;19;20018;-66
2023/02/13 07:40:27;;;;;;;38.80;16.75;;;8.40;81.70;;;;;;9180813;19;20474;-66
2023/02/13 07:43:32;;;;;;;43.03;18.10;;;8.50;81.80;;;;;;9182740;19;20015;-67
2023/02/13 07:46:36;;;;;;;;;;;8.50;81.80;;;;;;9182932;19;20018;-65
2023/02/13 07:49:44;;;;;;;38.42;17.08;;;8.50;81.80;;;;;;9181717;19;19922;-66
2023/02/13 07:52:54;;;;;;;42.83;18.45;;;8.50;81.70;;;;;;9179313;19;20015;-66
2023/02/13 07:56:00;;;;;;;42.88;17.70;;;8.50;82.40;;;;;;9174151;19;20030;-67
2023/02/13 07:59:04;;;;;;;40.58;17.45;;;8.50;81.80;;;;;;9172965;19;20015;-68
2023/02/13 08:02:14;;;;;;;38.90;18.17;;;8.50;81.90;;;;;;9179965;19;20013;-66
2023/02/13 08:05:20;;;;;;;36.50;18.40;;;8.50;81.90;;;;;;9181066;19;20018;-67
2023/02/13 08:08:26;;;;;;;39.70;17.98;;;8.50;81.90;;;;;;9179701;19;20349;-66
2023/02/13 08:14:51;;;;;;;41.25;18.02;;;8.50;81.90;;;;;;9180710;19;20260;-65
2023/02/13 08:17:55;;;;;;;38.15;18.33;;;8.50;81.80;;;;;;9180662;19;20022;-65
2023/02/13 08:21:02;;;;;;;42.72;18.90;;;8.60;81.90;;;;;;9177058;19;20022;-64
2023/02/13 08:24:07;;;;;;;38.55;18.23;;;8.50;81.90;;;;;;9180981;19;20031;-65
2023/02/13 08:27:14;;;;;;;42.72;18.48;;;8.60;82.60;;;;;;9180376;19;20570;-65
2023/02/13 08:30:18;;;;;;;41.42;18.40;;;8.60;82.00;;;;;;9180127;19;20021;-65
2023/02/13 08:33:24;;;;;;;44.05;18.92;;;8.60;82.00;;;;;;9180300;19;20019;-67
2023/02/13 08:36:29;;;;;;;;;;;8.60;82.00;;;;;;9179277;19;20007;-67
2023/02/13 08:39:35;;;;;;;40.20;18.63;;;8.70;82.00;;;;;;9180600;19;19923;-66
2023/02/13 08:42:39;;;;;;;;;;;8.70;81.90;;;;;;9181628;19;20519;-65
2023/02/13 08:45:45;;;;;;;42.13;19.20;;;8.70;82.00;;;;;;9180301;19;19915;-67
2023/02/13 08:48:49;;;;;;;;;;;8.70;81.90;;;;;;9181385;19;20480;-66
2023/02/13 08:51:56;;;;;;;40.85;19.17;;;8.80;82.00;;;;;;9179757;19;19927;-65
2023/02/13 08:55:02;;;;;;;39.10;18.38;;;8.80;81.90;;;;;;9179680;19;20007;-65
2023/02/13 08:58:08;;;;;;;40.47;18.65;;;8.80;82.00;;;;;;9179694;19;20495;-65
2023/02/13 09:01:12;;;;;;;40.50;20.00;;;8.90;82.10;;;;;;9178092;19;20138;-67
2023/02/13 09:04:18;;;;;;;44.45;19.13;;;8.90;82.20;;;;;;9173176;19;20018;-67
2023/02/13 09:07:24;;;;;;;40.38;19.55;;;8.90;82.10;;;;;;9172545;19;20356;-66
2023/02/13 09:10:30;;;;;;;40.28;19.70;;;8.90;82.10;;;;;;9169671;19;20030;-65
2023/02/13 09:13:35;;;;;;;47.38;19.77;;;9.00;82.20;;;;;;9167748;19;20547;-67
2023/02/13 09:16:41;;;;;;;43.22;20.67;;;9.00;82.80;;;;;;9170375;19;20019;-67
2023/02/13 09:19:46;;;;;;;36.22;18.88;;;9.00;82.20;;;;;;9172022;19;20010;-65
2023/02/13 09:22:55;;;;;;;42.72;20.05;;;9.10;82.20;;;;;;9178116;19;20360;-67
2023/02/13 09:26:01;;;;;;;46.22;20.80;;;9.10;82.20;;;;;;9174592;19;20014;-66
2023/02/13 09:29:06;;;;;;;43.47;21.35;;;9.20;82.30;;;;;;9173223;19;20041;-67
2023/02/13 09:32:10;;;;;;;45.58;20.70;;;9.20;82.30;;;;;;9161388;19;20025;-66
2023/02/13 09:35:16;;;;;;;41.80;19.58;;;9.30;82.30;;;;;;9163299;19;20023;-67
2023/02/13 09:38:22;;;;;;;;;;;9.30;82.30;;;;;;9167920;19;20040;-67
2023/02/13 09:41:31;;;;;;;48.45;22.30;;;9.30;82.30;;;;;;9165248;19;19922;-67
2023/02/13 09:44:40;;;;;;;40.88;21.55;;;9.40;82.20;;;;;;9162787;19;20058;-67
2023/02/13 09:47:47;;;;;;;43.67;21.80;;;9.40;82.20;;;;;;9166373;19;20767;-67
2023/02/13 09:50:51;;;;;;;43.83;20.80;;;9.40;82.20;;;;;;9165003;19;20041;-67
2023/02/13 09:54:02;;;;;;;42.47;22.05;;;9.50;82.30;;;;;;9164268;19;20021;-65
2023/02/13 09:57:15;;;;;;;38.35;21.00;;;9.50;82.30;;;;;;9162132;19;20018;-66
2023/02/13 10:00:25;;;;;;;45.90;21.80;;;9.60;82.30;;;;;;9161248;19;20443;-68
2023/02/13 10:03:33;;;;;;;43.28;21.50;;;9.60;82.30;;;;;;9161560;19;20018;-65
2023/02/13 10:06:48;;;;;;;42.80;23.00;;;9.60;82.30;;;;;;9165623;19;20029;-67
2023/02/13 10:10:02;;;;;;;47.30;24.33;;;9.70;82.30;;;;;;9163393;19;20018;-67
2023/02/13 10:13:23;;;;;;;43.70;23.13;;;9.70;82.30;;;;;;9163573;19;20131;-68
2023/02/13 10:16:34;;;;;;;42.00;23.50;;;9.80;82.90;;;;;;9162909;19;20495;-66
2023/02/13 10:19:45;;;;;;;41.25;22.27;;;9.90;82.30;;;;;;9165862;19;20014;-66
2023/02/13 10:22:52;;;;;;;44.50;22.77;;;9.90;82.30;;;;;;9173468;19;20026;-67
2023/02/13 10:26:03;;;;;;;45.17;22.85;;;10.00;82.30;;;;;;9176949;19;20026;-68
2023/02/13 10:32:40;;;;;;;37.80;21.17;;;10.10;82.20;;;;;;9174603;19;20026;-67
2023/02/13 10:35:48;;;;;;;41.47;23.13;;;10.20;82.20;;;;;;9175147;19;20018;-67
2023/02/13 10:38:58;;;;;;;40.20;22.40;;;10.20;82.10;;;;;;9176746;19;20019;-66
2023/02/13 10:42:13;;;;;;;42.40;23.38;;;10.30;82.10;;;;;;9176185;19;20596;-67
2023/02/13 10:45:33;;;;;;;37.47;22.08;;;10.40;82.00;;;;;;9175793;19;20014;-66
2023/02/13 10:48:51;;;;;;;36.72;22.63;;;10.40;81.90;;;;;;9175666;19;20014;-66
2023/02/13 10:52:11;;;;;;;40.75;23.73;;;10.40;81.80;;;;;;9175411;19;20019;-66
2023/02/13 10:55:54;;;;;;;38.78;22.38;;;10.50;81.70;;;;;;9175206;19;20087;-66
2023/02/13 10:59:29;;;;;;;42.42;24.88;;;10.50;81.50;;;;;;9178550;19;20094;-66
2023/02/13 11:02:35;;;;;;;39.90;23.25;;;10.60;81.50;;;;;;9183118;19;20743;-68
2023/02/13 11:05:42;;;;;;;38.15;22.00;;;10.60;81.50;;;;;;9181253;19;20010;-68
2023/02/13 11:08:48;;;;;;;40.85;23.50;;;10.60;81.50;;;;;;9183099;19;20041;-67
2023/02/13 11:11:55;;;;;;;42.08;24.55;;;10.70;81.50;;;;;;9179449;19;20017;-67
2023/02/13 11:15:02;;;;;;;40.45;23.88;;;10.70;81.30;;;;;;9183243;19;20014;-66
2023/02/13 11:18:19;;;;;;;43.22;23.55;;;10.70;81.30;;;;;;9182570;19;20029;-65
2023/02/13 11:21:34;;;;;;;42.53;24.38;;;10.80;81.20;;;;;;9179123;19;20007;-66
2023/02/13 11:24:42;;;;;;;47.20;24.65;;;10.80;81.20;;;;;;9183278;19;20018;-66
2023/02/13 11:27:48;;;;;;;41.33;23.75;;;10.80;81.10;;;;;;9182623;19;20019;-67
2023/02/13 11:31:11;;;;;;;42.78;25.30;;;10.90;81.10;;;;;;9183154;19;20023;-67
2023/02/13 11:34:27;;;;;;;40.95;24.90;;;10.90;80.90;;;;;;9182702;19;20022;-66
2023/02/13 11:37:33;;;;;;;42.95;24.92;;;10.90;80.90;;;;;;9180110;19;20371;-67
2023/02/13 11:40:38;;;;;;;39.22;23.90;;;10.90;80.90;;;;;;9182408;19;20016;-66
2023/02/13 11:43:48;;;;;;;43.65;26.05;;;11.00;80.90;;;;;;9171086;19;20014;-67
2023/02/13 11:46:56;;;;;;;44.08;25.98;;;11.00;80.80;;;;;;9176286;19;20040;-67
2023/02/13 11:50:02;;;;;;;48.80;26.77;;;11.10;80.70;;;;;;9174862;19;20011;-67
2023/02/13 11:53:08;;;;;;;46.20;26.27;;;11.10;80.70;;;;;;9172843;19;20014;-68
2023/02/13 11:56:16;;;;;;;44.15;25.33;;;11.10;80.60;;;;;;9171741;19;20352;-65
2023/02/13 11:59:23;;;;;;;43.15;25.33;;;11.10;80.60;;;;;;9174073;19;20022;-67
2023/02/13 12:02:44;;;;;;;41.78;24.98;;;11.20;80.50;;;;;;9164691;19;20026;-67
2023/02/13 12:06:01;;;;;;;44.65;25.33;;;11.20;80.50;;;;;;9166507;19;20523;-67
2023/02/13 12:09:14;;;;;;;45.10;25.60;;;11.20;80.30;;;;;;9165082;19;20018;-67
2023/02/13 12:12:24;;;;;;;39.97;24.60;;;11.30;80.40;;;;;;9163782;19;20018;-67
2023/02/13 12:15:32;;;;;;;40.70;24.60;;;11.30;80.30;;;;;;9171929;19;20026;-67
2023/02/13 12:18:43;;;;;;;42.50;23.80;;;11.30;80.30;;;;;;9168706;19;20035;-67
2023/02/13 12:22:13;;;;;;;38.92;23.65;;;11.40;80.30;;;;;;9171750;19;20007;-67
2023/02/13 12:25:47;;;;;;;39.03;23.08;;;11.40;80.10;;;;;;9169401;19;20030;-67
2023/02/13 12:29:22;;;;;;;39.80;23.38;;;11.50;80.10;;;;;;9171529;19;20014;-67
2023/02/13 12:32:38;;;;;;;38.47;23.40;;;11.50;80.10;;;;;;9171412;19;20018;-67
2023/02/13 12:35:56;;;;;;;36.72;23.60;;;11.60;80.10;;;;;;9169595;19;20024;-68
2023/02/13 12:39:15;;;;;;;39.97;22.50;;;11.70;80.00;;;;;;9170702;19;20051;-67
2023/02/13 12:42:38;;;;;;;32.92;20.25;;;11.80;80.10;;;;;;9171868;19;20010;-67
2023/02/13 12:45:47;;;;;;;34.50;20.25;;;11.80;79.90;;;;;;9169269;19;20014;-67
2023/02/13 12:49:02;;;;;;;37.05;20.20;;;11.90;79.80;;;;;;9168376;19;20021;-67
2023/02/13 12:52:25;;;;;;;34.28;21.55;;;12.00;79.70;;;;;;9170726;19;20014;-67
2023/02/13 12:55:46;;;;;;;32.28;19.30;;;12.10;79.60;;;;;;9171165;19;20002;-67
2023/02/13 12:59:07;;;;;;;34.00;17.92;;;12.20;79.50;;;;;;9175266;19;20506;-67
2023/02/13 13:02:43;;;;;;;30.25;17.35;;;12.20;79.20;;;;;;9175663;19;20727;-67
2023/02/13 13:06:05;;;;;;;31.05;18.25;;;12.30;79.10;;;;;;9175129;19;20022;-67
2023/02/13 13:09:45;;;;;;;28.48;17.10;;;12.30;79.10;;;;;;9176219;19;20006;-67
2023/02/13 13:12:57;;;;;;;29.88;16.42;;;12.30;79.00;;;;;;9176859;19;20105;-67
2023/02/13 13:16:05;;;;;;;;;;;12.30;79.00;;;;;;9172680;19;20011;-66
2023/02/13 13:19:21;;;;;;;25.33;14.80;;;12.30;79.10;;;;;;9167849;19;19998;-67
2023/02/13 13:22:33;;;;;;;30.83;15.40;;;12.30;79.00;;;;;;9176771;19;20074;-67
2023/02/13 13:25:48;;;;;;;27.70;15.60;;;12.30;79.00;;;;;;9174800;19;20019;-67
2023/02/13 13:28:58;;;;;;;28.58;15.35;;;12.30;78.80;;;;;;9173512;19;20014;-67
2023/02/13 13:32:06;;;;;;;21.02;13.45;;;12.20;78.70;;;;;;9174078;19;20542;-67
2023/02/13 13:35:16;;;;;;;20.50;13.65;;;12.20;78.80;;;;;;9173327;19;20018;-67
2023/02/13 13:38:25;;;;;;;27.20;15.45;;;12.10;78.70;;;;;;9166732;19;20403;-67
2023/02/13 13:41:41;;;;;;;24.05;14.90;;;12.10;78.70;;;;;;9174370;19;20010;-67
2023/02/13 13:45:04;;;;;;;27.08;15.07;;;12.10;78.60;;;;;;9174536;19;20018;-68
2023/02/13 13:48:42;;;;;;;23.35;14.13;;;12.10;78.60;;;;;;9176725;19;20488;-68
2023/02/13 13:51:46;;;;;;;25.85;14.98;;;12.00;79.00;;;;;;9176381;19;20336;-67
2023/02/13 13:54:53;;;;;;;28.58;16.20;;;12.00;78.60;;;;;;9176479;19;20031;-67
2023/02/13 13:58:03;;;;;;;23.88;14.73;;;11.90;78.60;;;;;;9173057;19;20085;-67
2023/02/13 14:01:28;;;;;;;26.77;15.82;;;11.90;78.60;;;;;;9177160;19;20018;-67
2023/02/13 14:04:42;;;;;;;27.27;15.77;;;11.90;78.50;;;;;;9174740;19;20045;-67
2023/02/13 14:07:50;;;;;;;26.67;16.10;;;11.80;78.50;;;;;;9176527;19;20015;-67
2023/02/13 14:11:04;;;;;;;28.15;16.17;;;11.80;78.60;;;;;;9173350;19;20014;-67
2023/02/13 14:14:54;;;;;;;27.63;15.73;;;11.80;78.50;;;;;;9176491;19;20011;-67
2023/02/13 14:18:02;;;;;;;27.48;16.15;;;11.80;78.40;;;;;;9172348;19;20015;-67
2023/02/13 14:21:09;;;;;;;25.80;15.10;;;11.70;78.50;;;;;;9172270;19;20383;-67
2023/02/13 14:24:13;;;;;;;24.52;14.30;;;11.70;78.50;;;;;;9176076;19;20021;-67
2023/02/13 14:27:24;;;;;;;24.90;14.93;;;11.70;78.50;;;;;;9175745;19;20365;-67
2023/02/13 14:30:31;;;;;;;26.27;16.27;;;11.70;78.50;;;;;;9174456;19;20019;-66
2023/02/13 14:33:39;;;;;;;26.38;14.80;;;11.70;78.40;;;;;;9183905;19;20025;-67
2023/02/13 14:36:45;;;;;;;25.25;15.30;;;11.70;78.50;;;;;;9182163;19;20714;-67
2023/02/13 14:40:16;;;;;;;24.58;15.57;;;11.70;78.40;;;;;;9181216;19;20427;-67
2023/02/13 14:43:32;;;;;;;24.38;14.25;;;11.60;78.30;;;;;;9180368;19;20031;-65
2023/02/13 14:46:43;;;;;;;24.42;15.00;;;11.60;78.30;;;;;;9182835;19;20368;-68
2023/02/13 14:49:51;;;;;;;25.75;15.05;;;11.60;78.30;;;;;;9182748;19;20053;-68
2023/02/13 14:53:00;;;;;;;24.75;15.38;;;11.60;78.20;;;;;;9180990;19;20019;-69
2023/02/13 14:56:12;;;;;;;29.10;14.77;;;11.60;78.30;;;;;;9174836;19;20015;-68
2023/02/13 14:59:23;;;;;;;25.27;14.02;;;11.50;78.20;;;;;;9171911;19;20038;-68
2023/02/13 15:02:28;;;;;;;22.90;14.48;;;11.50;78.30;;;;;;9173323;19;20503;-64
2023/02/13 15:05:37;;;;;;;24.27;15.00;;;11.50;78.30;;;;;;9174659;19;20011;-66
2023/02/13 15:08:48;;;;;;;25.98;16.23;;;11.50;78.20;;;;;;9173038;19;20029;-67
2023/02/13 15:11:53;;;;;;;31.85;15.68;;;11.50;78.20;;;;;;9167764;19;20010;-67
2023/02/13 15:15:00;;;;;;;;;;;11.50;78.20;;;;;;9173740;19;20022;-66
2023/02/13 15:18:12;;;;;;;23.50;14.65;;;11.50;78.30;;;;;;9167792;19;19918;-67
2023/02/13 15:21:21;;;;;;;26.73;15.27;;;11.50;78.30;;;;;;9167362;19;20022;-67
2023/02/13 15:24:37;;;;;;;26.60;15.45;;;11.50;78.30;;;;;;9172015;19;20665;-67
2023/02/13 15:27:43;;;;;;;24.63;15.60;;;11.50;78.30;;;;;;9171534;19;20051;-68
2023/02/13 15:30:58;;;;;;;26.02;15.38;;;11.40;78.20;;;;;;9171409;19;20010;-66
2023/02/13 15:34:02;;;;;;;30.33;17.58;;;11.40;78.20;;;;;;9171331;19;20022;-65
2023/02/13 15:37:21;;;;;;;32.65;18.42;;;11.40;78.10;;;;;;9170197;19;20022;-67
2023/02/13 15:40:28;;;;;;;31.98;18.23;;;11.30;78.00;;;;;;9173478;19;20469;-67
2023/02/13 15:43:36;;;;;;;32.28;18.27;;;11.30;78.10;;;;;;9170729;19;20019;-67
2023/02/13 15:46:40;;;;;;;31.17;19.10;;;11.30;78.10;;;;;;9173253;19;20055;-66
2023/02/13 15:49:49;;;;;;;33.55;18.63;;;11.30;78.20;;;;;;9170233;19;20018;-68
2023/02/13 15:52:55;;;;;;;31.50;18.77;;;11.30;78.10;;;;;;9172262;19;20479;-67
2023/02/13 15:56:03;;;;;;;34.35;20.05;;;11.30;78.10;;;;;;9169057;19;20649;-65
2023/02/13 15:59:07;;;;;;;34.50;21.27;;;11.20;78.10;;;;;;9170857;19;20018;-65
2023/02/13 16:02:17;;;;;;;32.53;19.63;;;11.20;78.10;;;;;;9168907;19;20045;-68
2023/02/13 16:05:21;;;;;;;37.88;20.80;;;11.20;78.10;;;;;;9168116;19;20082;-68
2023/02/13 16:08:53;;;;;;;35.05;19.77;;;11.20;78.10;;;;;;9169605;19;20015;-68
2023/02/13 16:12:01;;;;;;;33.92;19.20;;;11.20;78.00;;;;;;9166482;19;20666;-66
2023/02/13 16:15:07;;;;;;;39.10;21.35;;;11.20;78.10;;;;;;9172798;19;20010;-68
2023/02/13 16:18:19;;;;;;;36.35;19.55;;;11.10;78.10;;;;;;9164458;19;20027;-65
2023/02/13 16:21:28;;;;;;;36.50;21.05;;;11.10;78.00;;;;;;9166837;19;20724;-68
2023/02/13 16:24:34;;;;;;;36.05;20.83;;;11.10;78.00;;;;;;9170329;19;20014;-67
2023/02/13 16:27:44;;;;;;;33.25;19.73;;;11.10;78.00;;;;;;9170194;19;20030;-67
2023/02/13 16:30:54;;;;;;;34.80;20.45;;;11.00;77.90;;;;;;9167293;19;20019;-67
2023/02/13 16:34:01;;;;;;;32.58;19.75;;;11.00;77.90;;;;;;9166289;19;20344;-67
2023/02/13 16:37:05;;;;;;;34.08;20.10;;;11.00;78.00;;;;;;9163973;19;20082;-67
2023/02/13 16:40:41;;;;;;;35.50;20.50;;;10.90;77.90;;;;;;9161762;19;20023;-66
2023/02/13 16:43:46;;;;;;;34.97;19.75;;;10.90;77.90;;;;;;9165744;19;20018;-66
2023/02/13 16:46:56;;;;;;;37.17;20.63;;;10.80;77.90;;;;;;9168378;19;20349;-66
2023/02/13 16:50:00;;;;;;;33.15;19.80;;;10.80;77.90;;;;;;9174008;19;20504;-66
2023/02/13 16:53:06;;;;;;;34.33;20.50;;;10.80;78.00;;;;;;9172898;19;20011;-66
2023/02/13 16:56:13;;;;;;;36.60;20.80;;;10.70;77.90;;;;;;9167364;19;20019;-68
2023/02/13 16:59:39;;;;;;;33.95;20.38;;;10.70;77.90;;;;;;9163686;19;20022;-67
2023/02/13 17:02:43;;;;;;;44.75;21.42;;;10.60;77.80;;;;;;9158337;19;20756;-67